Time;durP1;ratioP1;P1;durP2;ratioP2;P2;SDS_P1;SDS_P2;PMS_P1;PMS_P2;Temp;Humidity;BMP_temperature;BMP_pressure;BME280_temperature;BME280_humidity;BME280_pressure;Samples;Min_cycle;Max_cycle;Signal;HPM_P1;HPM_P2
2022/11/12 00:00:10;;;;;;;37.42;24.45;;;;;;;8.84;74.43;95972.66;4145599;28;20109;-71
2022/11/12 00:02:11;;;;;;;36.20;25.38;;;;;;;9.13;73.71;95978.25;4147080;28;20053;-73
2022/11/12 00:04:13;;;;;;;35.65;24.92;;;;;;;9.35;72.78;95980.00;4144439;28;20461;-75
2022/11/12 00:06:15;;;;;;;38.25;25.80;;;;;;;9.54;71.49;95968.94;4144124;28;20373;-73
2022/11/12 00:08:17;;;;;;;36.65;22.98;;;;;;;9.61;71.02;95961.44;4142584;28;20455;-73
2022/11/12 00:10:19;;;;;;;34.13;24.30;;;;;;;9.75;71.04;95963.78;4142040;28;20077;-74
2022/11/12 00:12:20;;;;;;;36.25;24.42;;;;;;;9.82;70.59;95957.09;4144568;28;20515;-72
2022/11/12 00:14:22;;;;;;;36.00;24.90;;;;;;;9.92;69.83;95965.06;4144077;28;20108;-73
2022/11/12 00:16:23;;;;;;;36.75;24.80;;;;;;;9.93;69.37;95963.25;4142596;28;20061;-71
2022/11/12 00:18:25;;;;;;;38.70;24.48;;;;;;;9.96;69.93;95960.38;4142657;28;20504;-72
2022/11/12 00:20:27;;;;;;;38.35;24.08;;;;;;;9.75;69.83;95957.72;4144361;28;20076;-75
2022/11/12 00:22:29;;;;;;;37.47;24.90;;;;;;;9.43;70.29;95955.88;4137890;28;20531;-74
2022/11/12 00:24:31;;;;;;;39.17;25.05;;;;;;;9.33;71.56;95958.38;4142674;28;20148;-73
2022/11/12 00:26:33;;;;;;;37.03;23.98;;;;;;;9.29;71.03;95954.38;4116080;28;20474;-74
2022/11/12 00:28:34;;;;;;;34.15;24.50;;;;;;;9.39;71.42;95964.91;4138815;28;20403;-74
2022/11/12 00:30:39;;;;;;;36.42;23.48;;;;;;;9.40;71.10;95967.44;4141397;28;20151;-73
2022/11/12 00:32:41;;;;;;;35.53;24.02;;;;;;;9.18;71.54;95972.66;4146106;28;20140;-75
2022/11/12 00:34:43;;;;;;;36.47;23.65;;;;;;;8.99;72.82;95968.88;4132134;28;20424;-74
2022/11/12 00:36:44;;;;;;;35.03;23.88;;;;;;;9.09;72.92;95976.00;4143226;28;20519;-73
2022/11/12 00:38:46;;;;;;;36.15;24.63;;;;;;;9.25;72.63;95968.63;4144081;28;20081;-73
2022/11/12 00:40:48;;;;;;;35.53;25.90;;;;;;;9.26;72.26;95969.44;4141941;28;20046;-71
2022/11/12 00:42:51;;;;;;;36.80;25.10;;;;;;;9.34;72.60;95975.75;4139621;28;20430;-74
2022/11/12 00:44:52;;;;;;;37.17;26.10;;;;;;;9.35;71.44;95974.78;4143954;28;20189;-72
2022/11/12 00:46:55;;;;;;;39.22;27.00;;;;;;;9.29;72.30;95970.06;4143357;28;20050;-73
2022/11/12 00:48:57;;;;;;;33.83;23.80;;;;;;;9.32;72.12;95969.81;4135254;28;20054;-74
2022/11/12 00:51:03;;;;;;;36.88;24.98;;;;;;;9.38;72.22;95968.50;4144105;28;20081;-72
2022/11/12 00:53:05;;;;;;;35.58;24.33;;;;;;;9.51;71.74;95963.97;4126466;28;20485;-74
2022/11/12 00:55:07;;;;;;;37.47;24.10;;;;;;;9.63;71.22;95954.28;4150223;28;20081;-72
2022/11/12 00:57:08;;;;;;;35.42;23.35;;;;;;;9.76;70.80;95954.97;4145062;28;20057;-72
2022/11/12 00:59:10;;;;;;;33.88;23.80;;;;;;;9.88;70.31;95966.25;4142878;28;20054;-75
2022/11/12 01:01:13;;;;;;;37.22;24.52;;;;;;;9.96;70.34;95957.75;4147062;28;20123;-74
2022/11/12 01:03:15;;;;;;;33.53;22.55;;;;;;;10.04;69.72;95947.50;4140313;28;20096;-74
2022/11/12 01:05:17;;;;;;;35.05;23.50;;;;;;;10.07;68.96;95933.31;4138181;28;20427;-75
2022/11/12 01:07:19;;;;;;;36.42;23.38;;;;;;;10.11;69.48;95940.84;4142601;28;20057;-73
2022/11/12 01:09:21;;;;;;;33.92;22.58;;;;;;;10.12;69.16;95939.03;4148482;28;20050;-73
2022/11/12 01:11:27;;;;;;;32.40;22.15;;;;;;;10.12;69.61;95947.72;4143584;28;20136;-72
2022/11/12 01:13:29;;;;;;;32.17;21.67;;;;;;;10.15;69.61;95952.72;4142434;28;20253;-74
2022/11/12 01:15:30;;;;;;;36.20;22.25;;;;;;;10.18;69.28;95944.59;4143293;28;20447;-74
2022/11/12 01:17:32;;;;;;;31.63;22.00;;;;;;;10.19;68.96;95943.63;4143081;28;20080;-72
2022/11/12 01:19:35;;;;;;;30.58;21.30;;;;;;;10.19;68.82;95941.00;4142011;28;20054;-73
2022/11/12 01:21:40;;;;;;;34.22;23.48;;;;;;;10.07;68.91;95936.81;4144049;28;20112;-73
2022/11/12 01:23:42;;;;;;;34.33;22.10;;;;;;;9.92;70.04;95941.50;4135111;28;20136;-72
2022/11/12 01:25:43;;;;;;;33.90;22.83;;;;;;;9.94;70.13;95944.00;4136801;28;20062;-72
2022/11/12 01:27:45;;;;;;;35.10;23.88;;;;;;;9.96;69.85;95942.06;4143437;28;20112;-71
2022/11/12 01:29:47;;;;;;;31.50;22.48;;;;;;;10.01;70.07;95945.16;4140214;28;20042;-71
2022/11/12 01:31:49;;;;;;;33.60;23.05;;;;;;;10.07;69.88;95942.03;4140900;28;20465;-72
2022/11/12 01:33:56;;;;;;;36.30;22.13;;;;;;;10.12;69.50;95942.47;4141053;28;20085;-72
2022/11/12 01:35:58;;;;;;;32.38;22.08;;;;;;;10.20;69.72;95939.25;4138534;28;20136;-72
2022/11/12 01:38:00;;;;;;;31.75;21.58;;;;;;;10.24;69.16;95938.88;4143434;28;20050;-72
2022/11/12 01:40:02;;;;;;;33.22;22.48;;;;;;;10.24;69.10;95936.25;4146381;28;20116;-72
2022/11/12 01:42:04;;;;;;;32.45;21.30;;;;;;;10.23;69.38;95929.31;4146227;28;20065;-72
2022/11/12 01:44:20;;;;;;;30.10;21.08;;;;;;;10.27;69.08;95929.09;4146525;28;20500;-70
2022/11/12 01:46:26;;;;;;;29.88;20.13;;;;;;;10.29;69.18;95922.78;4143816;28;20092;-72
2022/11/12 01:48:31;;;;;;;29.42;21.58;;;;;;;10.31;69.21;95925.28;4145188;28;20129;-73
2022/11/12 01:50:35;;;;;;;32.90;21.25;;;;;;;10.31;68.96;95931.34;4146542;28;20468;-73
2022/11/12 01:52:41;;;;;;;32.78;20.98;;;;;;;10.34;68.83;95919.78;4146300;28;20153;-71
2022/11/12 01:54:45;;;;;;;30.50;21.55;;;;;;;10.38;68.27;95921.19;4145618;28;20054;-72
2022/11/12 01:56:49;;;;;;;33.35;20.45;;;;;;;10.37;68.44;95920.38;4144726;28;20156;-73
2022/11/12 01:59:00;;;;;;;31.02;19.90;;;;;;;10.35;68.90;95922.28;4128959;28;20465;-74
2022/11/12 02:01:02;;;;;;;29.92;20.48;;;;;;;10.39;68.52;95922.84;4138027;28;20046;-74
2022/11/12 02:03:14;;;;;;;31.48;20.02;;;;;;;10.42;68.40;95920.81;4141518;28;20050;-71
2022/11/12 02:05:17;;;;;;;30.33;20.33;;;;;;;10.45;68.33;95911.84;4132478;28;20130;-72
2022/11/12 02:07:21;;;;;;;32.17;20.75;;;;;;;10.50;67.99;95920.19;4144801;28;20107;-72
2022/11/12 02:09:23;;;;;;;33.00;20.83;;;;;;;10.53;68.24;95924.31;4146308;28;20128;-73
2022/11/12 02:11:24;;;;;;;29.58;20.70;;;;;;;10.57;68.17;95918.69;4142055;28;20082;-72
2022/11/12 02:15:46;;;;;;;29.63;19.58;;;;;;;10.60;67.81;95909.75;4143555;28;20130;-73
2022/11/12 02:17:47;;;;;;;30.95;19.45;;;;;;;10.58;67.61;95920.38;4145276;28;20180;-73
2022/11/12 02:19:51;;;;;;;28.92;19.95;;;;;;;10.54;68.01;95929.44;4145979;28;20099;-73
2022/11/12 02:21:53;;;;;;;29.50;20.45;;;;;;;10.39;67.95;95934.19;4144524;28;20045;-74
2022/11/12 02:24:05;;;;;;;29.48;20.85;;;;;;;10.25;68.64;95926.59;4127870;28;20525;-72
2022/11/12 02:26:07;;;;;;;26.33;18.73;;;;;;;10.18;69.16;95928.06;4141578;28;20077;-71
2022/11/12 02:28:09;;;;;;;30.95;19.67;;;;;;;10.18;69.67;95928.88;4145742;28;20449;-73
2022/11/12 02:30:11;;;;;;;31.85;20.08;;;;;;;10.20;69.50;95926.16;4145273;28;20106;-71
2022/11/12 02:32:13;;;;;;;28.52;18.30;;;;;;;10.25;69.49;95922.19;4140296;28;20057;-75
2022/11/12 02:34:14;;;;;;;23.25;16.38;;;;;;;10.03;68.29;95928.34;4140684;28;20080;-72
2022/11/12 02:36:16;;;;;;;24.42;16.55;;;;;;;9.92;69.13;95924.97;4144379;28;20049;-73
2022/11/12 02:38:18;;;;;;;26.45;17.40;;;;;;;9.87;69.08;95921.88;4143659;28;20401;-73
2022/11/12 02:40:20;;;;;;;18.33;12.25;;;;;;;9.68;68.65;95928.59;4143985;28;20208;-73
2022/11/12 02:42:21;;;;;;;17.92;13.10;;;;;;;9.70;68.86;95926.69;4144856;28;20065;-73
2022/11/12 02:44:23;;;;;;;21.20;14.80;;;;;;;9.76;69.35;95920.13;4133439;28;20121;-72
2022/11/12 02:46:25;;;;;;;14.60;10.82;;;;;;;9.79;68.75;95920.72;4144445;28;20332;-73
2022/11/12 02:48:27;;;;;;;13.50;9.45;;;;;;;9.84;68.33;95921.16;4144327;28;20057;-73
2022/11/12 02:50:29;;;;;;;18.30;13.20;;;;;;;9.94;68.36;95921.25;4144305;28;20067;-74
2022/11/12 02:52:31;;;;;;;14.13;9.93;;;;;;;10.02;67.85;95918.00;4135679;28;20085;-71
2022/11/12 02:54:33;;;;;;;14.02;8.98;;;;;;;10.10;67.35;95918.22;4140180;28;20053;-71
2022/11/12 02:56:34;;;;;;;13.90;9.73;;;;;;;10.13;66.50;95920.59;4130511;28;20136;-74
2022/11/12 02:58:36;;;;;;;16.40;9.70;;;;;;;10.17;67.39;95914.13;4145427;28;20144;-69
2022/11/12 03:00:38;;;;;;;13.88;9.27;;;;;;;10.25;67.08;95910.88;4145036;28;20455;-73
2022/11/12 03:02:41;;;;;;;15.05;9.32;;;;;;;10.27;66.69;95910.75;4143031;28;20087;-72
2022/11/12 03:04:43;;;;;;;;;;;;;;;10.27;66.68;95906.34;4132027;28;20129;-72
2022/11/12 03:06:51;;;;;;;11.75;8.23;;;;;;;10.26;66.30;95907.31;4143607;28;19995;-72
2022/11/12 03:08:52;;;;;;;12.48;8.38;;;;;;;10.30;66.19;95913.97;4145114;28;20383;-72
2022/11/12 03:10:54;;;;;;;12.77;8.30;;;;;;;10.33;66.45;95912.91;4144775;28;20249;-73
2022/11/12 03:12:57;;;;;;;11.15;7.90;;;;;;;10.36;65.57;95912.63;4145462;28;20117;-74
2022/11/12 03:14:59;;;;;;;11.20;7.90;;;;;;;10.27;65.31;95913.38;4127744;28;20129;-72
2022/11/12 03:17:00;;;;;;;14.10;7.78;;;;;;;10.08;65.66;95917.50;4144436;28;20081;-70
2022/11/12 03:19:02;;;;;;;11.38;8.10;;;;;;;9.71;67.38;95917.88;4144952;28;20054;-71
2022/11/12 03:21:04;;;;;;;10.15;7.60;;;;;;;9.43;68.04;95916.66;4145052;28;20050;-72
2022/11/12 03:23:08;;;;;;;9.63;7.18;;;;;;;9.31;68.53;95921.06;4143307;28;20821;-72
2022/11/12 03:25:10;;;;;;;;;;;;;;;9.28;68.13;95918.69;4144266;28;20675;-73
2022/11/12 03:27:11;;;;;;;10.00;7.22;;;;;;;9.36;68.43;95916.31;4143214;28;20128;-73
2022/11/12 03:29:13;;;;;;;11.57;6.97;;;;;;;9.47;68.09;95925.91;4145348;28;20042;-73
2022/11/12 03:31:15;;;;;;;12.95;7.38;;;;;;;9.58;67.92;95927.69;4143465;28;20065;-73
2022/11/12 03:33:16;;;;;;;11.63;7.43;;;;;;;9.59;67.30;95929.31;4144610;28;20057;-72
2022/11/12 03:35:18;;;;;;;9.43;6.85;;;;;;;9.60;67.48;95921.38;4144587;28;20536;-74
2022/11/12 03:37:20;;;;;;;10.50;6.57;;;;;;;9.53;67.03;95921.97;4127600;28;20050;-74
2022/11/12 03:39:22;;;;;;;9.40;5.82;;;;;;;9.58;67.02;95925.06;4135031;28;20125;-75
2022/11/12 03:41:23;;;;;;;7.32;5.90;;;;;;;9.55;66.86;95922.69;4142296;28;20114;-73
2022/11/12 03:43:25;;;;;;;10.60;6.13;;;;;;;9.58;66.54;95925.88;4144673;28;20145;-74
2022/11/12 03:45:27;;;;;;;9.20;6.20;;;;;;;9.51;66.97;95921.28;4144472;28;20519;-75
2022/11/12 03:47:29;;;;;;;7.00;5.47;;;;;;;9.35;67.31;95913.81;4144813;28;20050;-73
2022/11/12 03:49:30;;;;;;;7.43;6.20;;;;;;;9.23;67.46;95911.22;4144609;28;20137;-74
2022/11/12 03:51:32;;;;;;;9.25;5.70;;;;;;;9.06;67.84;95916.13;4127007;28;20406;-74
2022/11/12 03:53:34;;;;;;;8.85;6.35;;;;;;;9.11;68.11;95919.19;4143313;28;20624;-75
2022/11/12 03:55:36;;;;;;;10.63;5.38;;;;;;;9.19;68.08;95912.41;4144682;28;20077;-74
2022/11/12 03:57:38;;;;;;;8.38;6.13;;;;;;;9.33;67.87;95921.75;4143488;28;20116;-75
2022/11/12 03:59:39;;;;;;;8.55;5.88;;;;;;;9.48;67.09;95926.75;4142998;28;20611;-75
2022/11/12 04:01:41;;;;;;;7.40;4.80;;;;;;;9.58;66.29;95925.06;4131821;28;20141;-74
2022/11/12 04:03:43;;;;;;;7.10;5.43;;;;;;;9.58;65.93;95919.81;4143269;28;20053;-76
2022/11/12 04:10:30;;;;;;;6.90;5.32;;;;;;;9.33;66.25;95919.16;4146077;28;20053;-74
2022/11/12 04:14:51;;;;;;;7.35;5.10;;;;;;;9.39;66.16;95917.84;4145977;28;20140;-72
2022/11/12 04:21:57;;;;;;;8.38;5.95;;;;;;;9.45;65.42;95906.06;4144872;28;20424;-75
2022/11/12 04:23:59;;;;;;;7.72;5.35;;;;;;;9.51;65.18;95905.59;4140276;28;20068;-74
2022/11/12 04:28:21;;;;;;;7.00;5.70;;;;;;;9.41;65.15;95903.69;4144036;28;20100;-75
2022/11/12 04:30:23;;;;;;;6.43;4.93;;;;;;;9.32;65.32;95901.00;4130898;28;20140;-74
2022/11/12 04:32:25;;;;;;;8.60;6.00;;;;;;;9.21;66.05;95900.03;4142062;28;20444;-74
2022/11/12 04:34:29;;;;;;;7.97;5.50;;;;;;;9.16;65.84;95890.91;4144499;28;20081;-76
2022/11/12 04:36:31;;;;;;;7.88;6.22;;;;;;;9.18;65.30;95896.84;4144289;28;20050;-74
2022/11/12 04:38:33;;;;;;;9.35;6.20;;;;;;;9.02;66.59;95905.88;4141631;28;20049;-75
2022/11/12 04:45:15;;;;;;;8.52;5.40;;;;;;;8.72;66.68;95901.25;4143214;28;20061;-75
2022/11/12 04:47:17;;;;;;;9.15;6.60;;;;;;;8.64;66.98;95902.78;4142353;28;20129;-76
2022/11/12 04:49:19;;;;;;;8.18;5.85;;;;;;;8.48;67.05;95898.75;4144190;28;20376;-72
2022/11/12 04:53:41;;;;;;;8.05;6.32;;;;;;;8.26;67.41;95912.56;4142614;28;20128;-72
2022/11/12 04:55:43;;;;;;;7.05;6.30;;;;;;;8.02;67.92;95917.81;4144014;28;20794;-74
2022/11/12 04:57:52;;;;;;;6.65;5.53;;;;;;;8.11;68.17;95918.91;4142475;28;20145;-73
2022/11/12 05:00:01;;;;;;;8.15;6.30;;;;;;;8.23;67.57;95912.78;4137780;28;20133;-72
2022/11/12 05:02:03;;;;;;;8.57;7.32;;;;;;;8.38;67.59;95916.84;4141406;28;20090;-74
2022/11/12 05:04:04;;;;;;;8.45;6.53;;;;;;;8.53;67.12;95914.88;4143810;28;20069;-73
2022/11/12 05:08:26;;;;;;;7.90;6.60;;;;;;;8.87;65.87;95922.75;4135515;28;20542;-72
2022/11/12 05:10:29;;;;;;;8.38;6.10;;;;;;;8.99;65.48;95924.44;4139245;28;20645;-73
2022/11/12 05:12:31;;;;;;;9.00;6.22;;;;;;;9.05;63.97;95925.72;4143211;28;20693;-74
2022/11/12 05:14:33;;;;;;;11.98;6.80;;;;;;;9.14;63.36;95929.41;4145532;28;20061;-74
2022/11/12 05:16:35;;;;;;;11.50;6.40;;;;;;;9.14;64.10;95935.47;4145923;28;20138;-74
2022/11/12 05:18:37;;;;;;;8.23;6.80;;;;;;;9.20;63.77;95928.91;4147268;28;20054;-74
2022/11/12 05:20:39;;;;;;;7.80;6.18;;;;;;;9.29;63.59;95933.44;4146796;28;20037;-73
2022/11/12 05:22:40;;;;;;;8.75;6.20;;;;;;;9.37;64.26;95935.44;4145442;28;20073;-75
2022/11/12 05:24:51;;;;;;;9.23;6.95;;;;;;;9.43;63.64;95935.78;4146779;28;20060;-71
2022/11/12 05:26:53;;;;;;;9.15;7.28;;;;;;;9.45;63.23;95942.69;4145233;28;20612;-71
2022/11/12 05:28:54;;;;;;;9.27;6.70;;;;;;;9.50;63.56;95937.91;4147013;28;20053;-73
2022/11/12 05:30:56;;;;;;;10.98;6.65;;;;;;;9.55;63.27;95939.22;4145998;28;20085;-73
2022/11/12 05:32:58;;;;;;;9.77;6.65;;;;;;;9.59;62.98;95943.25;4145808;28;20136;-74
2022/11/12 05:34:59;;;;;;;8.48;6.32;;;;;;;9.59;62.42;95942.41;4146106;28;20257;-73
2022/11/12 05:37:03;;;;;;;13.30;6.88;;;;;;;9.62;62.42;95947.41;4146640;28;20061;-73
2022/11/12 05:39:04;;;;;;;11.43;7.15;;;;;;;9.65;62.43;95949.78;4144356;28;20252;-74
2022/11/12 05:41:06;;;;;;;10.60;7.50;;;;;;;9.64;62.51;95940.28;4143895;28;20058;-72
2022/11/12 05:43:07;;;;;;;9.05;7.28;;;;;;;9.71;62.98;95951.91;4140086;28;20137;-73
2022/11/12 05:45:09;;;;;;;7.85;6.38;;;;;;;9.77;62.48;95940.13;4141477;28;20053;-72
2022/11/12 05:47:11;;;;;;;11.88;7.45;;;;;;;9.80;62.72;95947.72;4133043;28;20124;-73
2022/11/12 05:49:13;;;;;;;10.35;7.28;;;;;;;9.81;61.58;95947.59;4146179;28;20289;-72
2022/11/12 05:51:15;;;;;;;8.05;6.50;;;;;;;9.84;62.00;95949.13;4146636;28;20120;-74
2022/11/12 05:53:17;;;;;;;8.90;6.88;;;;;;;9.87;62.11;95951.47;4145552;28;20054;-74
2022/11/12 05:55:18;;;;;;;12.60;9.15;;;;;;;9.96;61.94;95949.91;4146222;28;20529;-73
2022/11/12 05:57:20;;;;;;;9.93;7.13;;;;;;;9.92;61.46;95957.19;4143956;28;20476;-74
2022/11/12 05:59:22;;;;;;;10.18;7.47;;;;;;;9.98;62.09;95958.47;4144921;28;20433;-73
2022/11/12 06:01:23;;;;;;;9.48;7.15;;;;;;;10.01;60.95;95953.81;4145346;28;20089;-72
2022/11/12 06:03:25;;;;;;;8.20;6.72;;;;;;;10.01;61.63;95966.09;4146047;28;20077;-72
2022/11/12 06:05:27;;;;;;;10.07;7.28;;;;;;;10.02;61.31;95954.66;4146205;28;20081;-74
2022/11/12 06:07:29;;;;;;;10.13;7.43;;;;;;;10.01;61.50;95960.84;4146674;28;20132;-74
2022/11/12 06:09:30;;;;;;;8.68;7.07;;;;;;;10.03;61.68;95961.56;4145400;28;20073;-72
2022/11/12 06:11:32;;;;;;;10.32;7.50;;;;;;;10.05;60.83;95963.09;4145827;28;20084;-74
2022/11/12 06:13:34;;;;;;;11.57;7.68;;;;;;;10.13;61.33;95964.25;4144409;28;20124;-74
2022/11/12 06:15:36;;;;;;;10.65;6.93;;;;;;;10.14;60.84;95971.16;4145943;28;20133;-74
2022/11/12 06:17:40;;;;;;;;;;;;;;;10.12;60.82;95966.03;4145793;28;20050;-74
2022/11/12 06:19:42;;;;;;;8.90;7.45;;;;;;;10.20;60.75;95965.44;4144345;28;19929;-73
2022/11/12 06:22:07;;;;;;;10.18;6.78;;;;;;;10.27;60.88;95963.13;4137587;28;20461;-73
2022/11/12 06:24:15;;;;;;;12.38;7.97;;;;;;;10.29;60.23;95967.31;4127306;28;20050;-73
2022/11/12 06:26:17;;;;;;;10.18;7.65;;;;;;;10.30;60.53;95966.34;4142926;28;20085;-72
2022/11/12 06:28:19;;;;;;;10.68;7.80;;;;;;;10.23;60.18;95966.00;4144066;28;20151;-74
2022/11/12 06:30:25;;;;;;;12.18;8.23;;;;;;;10.11;60.46;95966.16;4144206;28;20118;-72
2022/11/12 06:32:29;;;;;;;11.38;8.05;;;;;;;10.09;61.06;95963.69;4141378;28;20046;-74
2022/11/12 06:34:33;;;;;;;12.48;8.43;;;;;;;10.19;60.99;95964.56;4135833;28;20138;-73
2022/11/12 06:36:38;;;;;;;14.50;8.00;;;;;;;10.33;60.48;95957.44;4145876;28;20100;-75
2022/11/12 06:38:40;;;;;;;11.45;7.72;;;;;;;10.45;60.34;95959.88;4144029;28;20104;-73
2022/11/12 06:40:42;;;;;;;11.27;8.20;;;;;;;10.51;59.31;95960.31;4140660;28;20038;-72
2022/11/12 06:42:44;;;;;;;11.48;7.53;;;;;;;10.56;59.37;95969.44;4143313;28;20050;-73
2022/11/12 06:44:45;;;;;;;11.55;8.05;;;;;;;10.62;58.91;95975.97;4141282;28;20504;-73
2022/11/12 06:46:47;;;;;;;11.65;8.25;;;;;;;10.58;58.07;95977.16;4142844;28;20054;-75
2022/11/12 06:48:48;;;;;;;9.48;7.03;;;;;;;10.56;58.37;95976.47;4145240;28;20049;-74
2022/11/12 06:50:50;;;;;;;10.93;7.75;;;;;;;10.31;58.55;95981.13;4145680;28;20484;-73
2022/11/12 06:52:57;;;;;;;19.92;7.53;;;;;;;10.08;59.70;95985.56;4144020;28;20049;-73
2022/11/12 06:54:58;;;;;;;12.48;7.68;;;;;;;9.95;60.10;95983.13;4145427;28;20169;-75
2022/11/12 06:57:01;;;;;;;10.20;7.45;;;;;;;9.98;60.23;95988.13;4145483;28;20073;-75
2022/11/12 06:59:03;;;;;;;10.63;7.55;;;;;;;10.01;59.76;95981.81;4145379;28;20057;-73
2022/11/12 07:01:11;;;;;;;11.98;7.13;;;;;;;9.90;60.57;95982.66;4144372;28;20072;-74
2022/11/12 07:03:13;;;;;;;10.57;7.63;;;;;;;9.76;60.39;95973.28;4145590;28;20145;-73
2022/11/12 07:05:15;;;;;;;9.18;7.65;;;;;;;9.76;60.24;95970.66;4145343;28;20518;-76
2022/11/12 07:07:18;;;;;;;10.50;8.10;;;;;;;9.89;60.78;95973.13;4145434;28;20046;-76
2022/11/12 07:09:20;;;;;;;12.88;8.48;;;;;;;10.03;60.46;95980.72;4142492;28;20085;-73
2022/11/12 07:11:22;;;;;;;11.63;8.13;;;;;;;10.19;59.93;95969.81;4130953;28;20101;-74
2022/11/12 07:13:24;;;;;;;11.23;7.72;;;;;;;10.32;59.53;95979.31;4142311;28;20067;-76
2022/11/12 07:15:25;;;;;;;13.70;8.57;;;;;;;10.42;59.78;95965.34;4144815;28;20449;-73
2022/11/12 07:17:27;;;;;;;11.00;8.18;;;;;;;10.55;59.29;95970.41;4143104;28;20465;-76
2022/11/12 07:19:29;;;;;;;9.82;7.90;;;;;;;10.65;58.77;95968.69;4146010;28;20092;-74
2022/11/12 07:21:30;;;;;;;11.88;8.15;;;;;;;10.58;58.45;95967.53;4143817;28;20096;-74
2022/11/12 07:23:34;;;;;;;15.20;8.68;;;;;;;10.61;59.21;95961.22;4144897;28;20050;-73
2022/11/12 07:25:36;;;;;;;10.25;7.97;;;;;;;10.69;58.68;95966.66;4143901;28;20104;-75
2022/11/12 07:27:37;;;;;;;9.15;7.53;;;;;;;10.77;58.27;95963.34;4143453;28;20053;-74
2022/11/12 07:29:40;;;;;;;11.75;8.07;;;;;;;10.85;58.32;95966.16;4144741;28;20100;-73
2022/11/12 07:31:49;;;;;;;11.38;7.88;;;;;;;10.93;58.21;95968.97;4144000;28;20689;-75
2022/11/12 07:33:51;;;;;;;11.77;8.38;;;;;;;10.98;58.34;95972.03;4143808;28;20108;-74
2022/11/12 07:36:03;;;;;;;11.35;8.02;;;;;;;10.97;57.72;95966.91;4144890;28;20124;-75
2022/11/12 07:38:04;;;;;;;10.55;7.55;;;;;;;10.97;57.60;95970.38;4144852;28;20188;-73
2022/11/12 07:40:06;;;;;;;10.68;7.63;;;;;;;10.85;57.19;95969.63;4144661;28;20447;-74
2022/11/12 07:42:08;;;;;;;9.25;6.78;;;;;;;10.85;57.38;95972.25;4140111;28;20488;-76
2022/11/12 07:44:10;;;;;;;9.85;6.63;;;;;;;10.89;57.07;95964.13;4134162;28;20428;-76
2022/11/12 07:46:14;;;;;;;10.40;7.18;;;;;;;10.93;57.22;95965.53;4144862;28;20061;-76
2022/11/12 07:48:16;;;;;;;11.43;7.22;;;;;;;11.03;56.87;95962.00;4127980;28;20054;-77
2022/11/12 07:50:18;;;;;;;9.35;6.63;;;;;;;11.11;56.59;95957.88;4145651;28;20057;-78
2022/11/12 07:52:20;;;;;;;8.52;6.57;;;;;;;11.15;55.87;95975.84;4144058;28;20624;-77
2022/11/12 07:54:22;;;;;;;6.70;5.35;;;;;;;11.11;55.41;95971.00;4144801;28;20081;-74
2022/11/12 07:56:25;;;;;;;7.75;5.65;;;;;;;11.10;55.76;95970.16;4137044;28;20065;-74
2022/11/12 07:58:29;;;;;;;10.32;6.72;;;;;;;11.13;55.81;95958.59;4143692;28;20524;-77
2022/11/12 08:00:31;;;;;;;9.55;6.50;;;;;;;11.11;55.70;95963.94;4143584;28;20244;-77
2022/11/12 08:02:33;;;;;;;9.20;6.57;;;;;;;11.09;55.77;95965.88;4144234;28;20448;-74
2022/11/12 08:04:35;;;;;;;9.95;7.28;;;;;;;11.01;55.58;95973.56;4143425;28;20463;-74
2022/11/12 08:06:37;;;;;;;11.07;6.25;;;;;;;10.96;55.53;95975.75;4144681;28;20062;-72
2022/11/12 08:08:39;;;;;;;12.27;6.82;;;;;;;10.90;55.25;95973.66;4144480;28;20054;-74
2022/11/12 08:10:40;;;;;;;10.63;7.20;;;;;;;10.81;55.63;95986.56;4138745;28;20121;-76
2022/11/12 08:12:42;;;;;;;10.20;6.20;;;;;;;10.56;55.61;95976.47;4137957;28;20508;-73
2022/11/12 08:14:44;;;;;;;9.82;6.43;;;;;;;10.38;56.12;95984.06;4145173;28;20096;-74
2022/11/12 08:16:45;;;;;;;9.07;6.80;;;;;;;10.23;57.00;95979.09;4143515;28;20141;-77
2022/11/12 08:18:47;;;;;;;12.60;7.45;;;;;;;10.30;57.69;95981.25;4143334;28;20049;-74
2022/11/12 08:20:49;;;;;;;8.82;6.53;;;;;;;10.21;57.25;95986.22;4143326;28;20122;-75
2022/11/12 08:22:51;;;;;;;9.48;6.28;;;;;;;10.25;56.85;95982.41;4144807;28;20121;-73
2022/11/12 08:24:52;;;;;;;9.30;6.85;;;;;;;10.33;57.09;95978.38;4138578;28;20069;-73
2022/11/12 08:26:54;;;;;;;12.85;8.77;;;;;;;10.12;57.23;95979.13;4144042;28;20180;-72
2022/11/12 08:28:56;;;;;;;12.32;8.57;;;;;;;10.26;57.83;95980.66;4144533;28;20046;-74
2022/11/12 08:31:12;;;;;;;12.30;8.30;;;;;;;10.43;57.24;95989.75;4144106;28;20200;-73
2022/11/12 08:33:13;;;;;;;10.80;7.72;;;;;;;10.56;57.10;95982.56;4143266;28;20077;-73
2022/11/12 08:35:15;;;;;;;10.18;7.40;;;;;;;10.69;57.18;95990.22;4137115;28;20145;-73
2022/11/12 08:37:17;;;;;;;10.85;8.00;;;;;;;10.75;56.40;95987.06;4143173;28;20131;-74
2022/11/12 08:39:19;;;;;;;10.95;8.05;;;;;;;10.86;55.96;95987.03;4143682;28;20145;-73
2022/11/12 08:41:20;;;;;;;10.20;6.53;;;;;;;10.93;56.37;95989.97;4143925;28;20046;-75
2022/11/12 08:43:22;;;;;;;11.00;6.47;;;;;;;10.98;55.47;95984.31;4144275;28;20277;-72
2022/11/12 08:45:24;;;;;;;10.07;6.50;;;;;;;11.00;55.75;95988.47;4143691;28;20132;-73
2022/11/12 08:47:25;;;;;;;9.73;6.80;;;;;;;11.00;55.71;95993.72;4143243;28;20449;-74
2022/11/12 08:49:28;;;;;;;9.77;6.53;;;;;;;10.97;55.67;95990.50;4143906;28;20060;-75
2022/11/12 08:51:29;;;;;;;10.27;6.43;;;;;;;11.05;55.85;95994.13;4144330;28;20073;-73
2022/11/12 08:53:31;;;;;;;8.20;6.70;;;;;;;11.17;55.54;95991.47;4144147;28;20073;-72
2022/11/12 08:55:34;;;;;;;8.55;6.20;;;;;;;11.16;54.75;95989.78;4144325;28;20539;-74
2022/11/12 08:57:42;;;;;;;10.88;6.13;;;;;;;11.21;55.02;95992.88;4143773;28;20045;-74
2022/11/12 08:59:44;;;;;;;10.82;6.75;;;;;;;11.28;55.41;95989.56;4142731;28;20048;-74
2022/11/12 09:01:46;;;;;;;11.05;6.65;;;;;;;11.38;54.76;95989.63;4142789;28;20064;-74
2022/11/12 09:03:48;;;;;;;9.15;6.28;;;;;;;11.46;54.76;95987.16;4142466;28;20470;-73
2022/11/12 09:05:51;;;;;;;9.77;5.75;;;;;;;11.56;54.24;95976.69;4126524;28;20062;-74
2022/11/12 09:07:59;;;;;;;8.38;5.97;;;;;;;11.59;53.37;95980.84;4126473;28;20148;-74
2022/11/12 09:10:01;;;;;;;7.15;5.30;;;;;;;11.56;53.63;95981.94;4139310;28;20069;-76
2022/11/12 09:12:03;;;;;;;6.20;5.05;;;;;;;11.61;53.49;95977.09;4132010;28;20142;-74
2022/11/12 09:14:15;;;;;;;8.63;4.97;;;;;;;11.63;53.64;95976.97;4144472;28;20046;-74
2022/11/12 09:16:17;;;;;;;10.63;5.18;;;;;;;11.68;53.57;95980.06;4143339;28;20050;-75
2022/11/12 09:18:19;;;;;;;7.18;4.88;;;;;;;11.65;52.81;95970.63;4144107;28;20530;-73
2022/11/12 09:20:20;;;;;;;7.82;5.10;;;;;;;11.61;53.01;95973.66;4144551;28;20054;-72
2022/11/12 09:22:22;;;;;;;6.70;4.75;;;;;;;11.40;53.82;95979.81;4144143;28;20388;-76
2022/11/12 09:24:24;;;;;;;6.80;4.90;;;;;;;11.46;53.87;95974.03;4142323;28;20145;-73
2022/11/12 09:26:25;;;;;;;7.75;5.43;;;;;;;11.54;53.85;95970.75;4143878;28;20085;-72
2022/11/12 09:28:27;;;;;;;6.28;4.78;;;;;;;11.57;53.65;95977.50;4144192;28;20220;-72
2022/11/12 09:30:29;;;;;;;7.53;5.15;;;;;;;11.56;53.44;95983.72;4143734;28;20050;-75
2022/11/12 09:32:31;;;;;;;8.15;5.53;;;;;;;11.41;53.97;95978.03;4142875;28;20057;-79
2022/11/12 09:34:33;;;;;;;6.55;5.07;;;;;;;11.36;53.86;95981.03;4143728;28;20042;-73
2022/11/12 09:36:35;;;;;;;6.32;4.95;;;;;;;11.32;53.87;95979.66;4142443;28;20091;-71
2022/11/12 09:38:40;;;;;;;8.02;5.05;;;;;;;11.32;54.71;95979.66;4143748;28;20081;-73
2022/11/12 09:40:50;;;;;;;6.85;4.70;;;;;;;11.33;54.37;95975.22;4143637;28;20125;-72
2022/11/12 09:42:52;;;;;;;8.52;5.47;;;;;;;11.29;53.84;95974.66;4143632;28;20423;-74
2022/11/12 09:45:21;;;;;;;9.13;4.93;;;;;;;11.32;54.49;95977.03;4142494;28;20508;-75
2022/11/12 09:47:26;;;;;;;7.22;4.90;;;;;;;11.44;54.40;95981.22;4131582;28;20142;-73
2022/11/12 09:49:33;;;;;;;6.47;5.03;;;;;;;11.45;54.25;95980.25;4142670;28;20046;-73
2022/11/12 09:51:42;;;;;;;8.75;5.63;;;;;;;11.32;54.36;95982.28;4132218;28;20061;-73
2022/11/12 09:53:52;;;;;;;6.05;4.45;;;;;;;11.30;54.59;95981.56;4141739;28;20129;-75
2022/11/12 09:55:54;;;;;;;7.22;4.75;;;;;;;11.34;54.65;95988.22;4143621;28;20516;-74
2022/11/12 09:57:56;;;;;;;7.68;4.65;;;;;;;11.40;54.32;95977.19;4143567;28;20053;-75
2022/11/12 09:59:58;;;;;;;6.10;4.43;;;;;;;11.46;54.07;95981.91;4145530;28;20050;-73